首页
METAR-TAF:

METAR-TAF

机场 :

Hoonah, 阿拉斯加州, 美国

纬度: 58-07N, 经度: 135-27W, 海拔: 0米

当前天气观测

该预报发布于34分钟前的18:56 UTC
静风
温度 2°C
湿度 93%
气压 1014 hPa
能見度: 16.1公里
阴天层高于3200英尺

METAR: PAOH 191856Z AUTO 00000KT 10SM OVC032 02/01 A2995 RMK AO2 SLP141 P0001 T00170011 PWINO FZRANO

时间: 10:30 (19:30 UTC)


TAF: 丢失

超过4000个机场的气象观测和天气预报(METAR&TAF报告)。

可查询的气象台以黄色和红色小点在地图上表示。

将鼠标移到小点上方,可查看气象台名称。

然后点击查看天气观测和预报。

如需切换地图:点击带黑十字的绿色按钮放大地图;点击带横线的绿色按钮缩小地图;或者点击绿色箭头查看邻近地区的地图。


METAR-TAF: